TimeCDT,TemperatureF,Dew PointF,Humidity,Sea Level PressureIn,VisibilityMPH,Wind Direction,Wind SpeedMPH,Gust SpeedMPH,PrecipitationIn,Events,Conditions,WindDirDegrees,DateUTC
12:53 AM,68.0,63.0,84,29.86,10.0,North,4.6,-,N/A,,Overcast,360,2013-08-31 05:53:00
1:53 AM,68.0,63.0,84,29.86,10.0,North,6.9,-,N/A,,Overcast,350,2013-08-31 06:53:00
2:53 AM,66.9,63.0,87,29.86,10.0,NNE,6.9,-,N/A,,Overcast,20,2013-08-31 07:53:00
3:53 AM,66.9,63.0,87,29.86,10.0,NE,3.5,-,N/A,,Overcast,40,2013-08-31 08:53:00
4:46 AM,66.2,64.4,94,29.90,10.0,Calm,Calm,-,N/A,,Overcast,0,2013-08-31 09:46:00
4:53 AM,66.0,64.0,93,29.88,10.0,Calm,Calm,-,N/A,,Overcast,0,2013-08-31 09:53:00
5:53 AM,66.0,64.0,93,29.88,10.0,North,3.5,-,N/A,,Overcast,10,2013-08-31 10:53:00
6:41 AM,66.2,64.4,94,29.88,10.0,NNE,6.9,-,N/A,,Overcast,20,2013-08-31 11:41:00
6:53 AM,66.0,64.0,93,29.86,10.0,NNE,6.9,-,N/A,,Overcast,30,2013-08-31 11:53:00
7:53 AM,66.9,64.9,93,29.86,10.0,NE,9.2,-,N/A,,Overcast,50,2013-08-31 12:53:00
8:34 AM,66.2,64.4,94,29.89,10.0,NE,5.8,-,N/A,,Overcast,50,2013-08-31 13:34:00
8:53 AM,66.9,64.9,93,29.89,10.0,Variable,4.6,-,N/A,,Overcast,0,2013-08-31 13:53:00
9:07 AM,68.0,64.4,88,29.90,10.0,North,5.8,-,N/A,,Overcast,360,2013-08-31 14:07:00
9:53 AM,68.0,64.9,90,29.89,10.0,Calm,Calm,-,N/A,,Overcast,0,2013-08-31 14:53:00
10:22 AM,69.8,64.4,83,29.89,10.0,NE,5.8,-,N/A,,Overcast,40,2013-08-31 15:22:00
10:31 AM,69.8,66.2,88,29.88,10.0,ENE,4.6,-,N/A,,Overcast,70,2013-08-31 15:31:00
10:53 AM,72.0,64.9,78,29.88,10.0,East,5.8,-,N/A,,Overcast,80,2013-08-31 15:53:00
11:53 AM,75.0,64.0,69,29.87,10.0,North,4.6,-,N/A,,Overcast,360,2013-08-31 16:53:00
12:22 PM,75.2,64.4,69,29.88,10.0,Variable,3.5,-,N/A,,Scattered Clouds,0,2013-08-31 17:22:00
12:53 PM,78.1,63.0,60,29.87,10.0,NE,9.2,-,N/A,,Clear,50,2013-08-31 17:53:00
1:53 PM,78.1,63.0,60,29.87,10.0,ENE,9.2,-,N/A,,Clear,70,2013-08-31 18:53:00
2:53 PM,75.0,63.0,66,29.86,10.0,ENE,10.4,-,N/A,,Clear,60,2013-08-31 19:53:00
3:53 PM,75.9,62.1,62,29.84,10.0,East,9.2,-,N/A,,Clear,80,2013-08-31 20:53:00
4:53 PM,75.0,62.1,64,29.84,10.0,East,8.1,-,N/A,,Clear,80,2013-08-31 21:53:00
5:53 PM,73.0,62.1,68,29.82,10.0,East,3.5,-,N/A,,Clear,80,2013-08-31 22:53:00
6:53 PM,72.0,62.1,71,29.81,10.0,ENE,3.5,-,N/A,,Clear,60,2013-08-31 23:53:00
7:53 PM,64.0,62.1,93,29.82,10.0,Calm,Calm,-,N/A,,Clear,0,2013-09-01 00:53:00
8:53 PM,63.0,62.1,97,29.86,10.0,WNW,3.5,-,N/A,,Clear,300,2013-09-01 01:53:00
9:53 PM,61.0,60.1,97,29.87,10.0,Calm,Calm,-,N/A,,Clear,0,2013-09-01 02:53:00
10:53 PM,61.0,61.0,100,29.86,10.0,Calm,Calm,-,N/A,,Clear,0,2013-09-01 03:53:00
11:53 PM,57.9,57.9,100,29.83,4.0,Calm,Calm,-,N/A,,Clear,0,2013-09-01 04:53:00